createdAt,value
2022-12-19T00:01:32.100Z,101172.38
2022-12-19T00:04:01.182Z,101162.22
2022-12-19T00:06:28.936Z,101166.50
2022-12-19T00:08:56.461Z,101167.34
2022-12-19T00:11:24.480Z,101170.72
2022-12-19T00:13:50.919Z,101168.13
2022-12-19T00:16:22.949Z,101175.09
2022-12-19T00:18:50.608Z,101181.09
2022-12-19T00:21:23.385Z,101180.84
2022-12-19T00:23:50.545Z,101198.50
2022-12-19T00:26:22.732Z,101203.69
2022-12-19T00:28:52.158Z,101169.09
2022-12-19T00:31:19.678Z,101167.34
2022-12-19T00:33:46.812Z,101161.41
2022-12-19T00:36:16.495Z,101175.09
2022-12-19T00:38:49.852Z,101158.03
2022-12-19T00:41:25.795Z,101153.84
2022-12-19T00:43:54.094Z,101170.22
2022-12-19T00:46:21.045Z,101155.44
2022-12-19T00:48:47.687Z,101167.72
2022-12-19T00:51:19.455Z,101145.31
2022-12-19T00:53:47.375Z,101155.75
2022-12-19T00:56:18.264Z,101144.50
2022-12-19T00:58:47.317Z,101135.00
2022-12-19T01:01:20.055Z,101132.50
2022-12-19T01:04:18.569Z,101140.34
2022-12-19T01:06:33.998Z,101152.41
2022-12-19T01:09:00.997Z,101143.75
2022-12-19T01:11:46.048Z,101127.31
2022-12-19T01:14:19.064Z,101135.09
2022-12-19T01:16:47.653Z,101126.53
2022-12-19T01:19:14.320Z,101142.09
2022-12-19T01:21:40.735Z,101114.50
2022-12-19T01:24:07.814Z,101105.84
2022-12-19T01:26:34.274Z,101110.22
2022-12-19T01:29:00.682Z,101111.09
2022-12-19T01:31:27.188Z,101107.72
2022-12-19T01:33:53.637Z,101119.91
2022-12-19T01:36:21.036Z,101099.19
2022-12-19T01:38:47.420Z,101105.22
2022-12-19T01:41:13.781Z,101100.94
2022-12-19T01:44:00.109Z,101107.97
2022-12-19T01:46:39.953Z,101113.13
2022-12-19T01:49:13.566Z,101109.69
2022-12-19T01:51:45.639Z,101104.44
2022-12-19T01:54:22.243Z,101097.72
2022-12-19T01:56:51.769Z,101099.19
2022-12-19T01:59:24.007Z,101083.78
2022-12-19T02:01:54.443Z,101082.19
2022-12-19T02:04:21.417Z,101075.34
2022-12-19T02:06:48.701Z,101080.44
2022-12-19T02:09:15.887Z,101073.44
2022-12-19T02:11:42.408Z,101076.16
2022-12-19T02:14:09.010Z,101078.69
2022-12-19T02:17:08.729Z,101072.59
2022-12-19T02:19:57.027Z,101063.16
2022-12-19T02:23:00.584Z,101056.16
2022-12-19T02:25:29.860Z,101046.75
2022-12-19T02:28:22.358Z,101055.38
2022-12-19T02:31:13.821Z,101047.69
2022-12-19T02:34:03.140Z,101038.13
2022-12-19T02:36:40.333Z,101042.44
2022-12-19T02:39:15.615Z,101031.38
2022-12-19T02:41:47.620Z,101041.56
2022-12-19T02:44:37.895Z,101047.63
2022-12-19T02:47:07.564Z,101045.81
2022-12-19T02:49:35.902Z,101049.28
2022-12-19T02:52:20.599Z,101044.88
2022-12-19T02:54:53.477Z,101042.06
2022-12-19T02:57:23.872Z,101051.53
2022-12-19T03:00:02.970Z,101055.84
2022-12-19T03:03:00.816Z,101048.84
2022-12-19T03:05:33.793Z,101028.13
2022-12-19T03:08:18.654Z,101048.84
2022-12-19T03:10:57.207Z,101048.69
2022-12-19T03:14:12.153Z,101052.94
2022-12-19T03:16:41.949Z,101058.13
2022-12-19T03:19:11.624Z,101043.25
2022-12-19T03:21:41.585Z,101051.88
2022-12-19T03:24:10.749Z,101063.97
2022-12-19T03:27:01.791Z,101079.44
2022-12-19T03:29:35.746Z,101086.31
2022-12-19T03:32:07.309Z,101082.84
2022-12-19T03:34:41.937Z,101056.91
2022-12-19T03:37:14.638Z,101073.22
2022-12-19T03:39:42.744Z,101061.94
2022-12-19T03:42:29.063Z,101070.47
2022-12-19T03:44:57.747Z,101079.09
2022-12-19T03:47:31.685Z,101075.34
2022-12-19T03:49:58.195Z,101065.97
2022-12-19T03:52:28.902Z,101068.47
2022-12-19T03:55:05.226Z,101077.06
2022-12-19T03:57:41.459Z,101074.38
2022-12-19T04:00:12.850Z,101071.72
2022-12-19T04:02:43.694Z,101093.16
2022-12-19T04:05:15.031Z,101078.44
2022-12-19T04:07:42.525Z,101090.50
2022-12-19T04:10:13.600Z,101081.94
2022-12-19T04:12:45.134Z,101081.00
2022-12-19T04:15:11.954Z,101086.78
2022-12-19T04:17:47.540Z,101075.66
2022-12-19T04:20:22.227Z,101048.78
2022-12-19T04:23:06.951Z,101060.84
2022-12-19T04:25:43.634Z,101064.19
2022-12-19T04:28:15.748Z,101075.41
2022-12-19T04:30:44.894Z,101086.56
2022-12-19T04:33:11.314Z,101073.59
2022-12-19T04:35:38.062Z,101077.84
2022-12-19T04:38:04.869Z,101086.53
2022-12-19T04:40:39.372Z,101044.97
2022-12-19T04:43:08.396Z,101047.47
2022-12-19T04:45:35.065Z,101037.81
2022-12-19T04:48:02.273Z,101043.03
2022-12-19T04:50:28.646Z,101055.25
2022-12-19T04:52:58.196Z,101022.34
2022-12-19T04:55:24.741Z,101056.91
2022-12-19T04:57:51.167Z,101057.03
2022-12-19T05:00:17.662Z,101049.88
2022-12-19T05:02:45.599Z,101077.69
2022-12-19T05:05:12.159Z,101056.94
2022-12-19T05:07:38.538Z,101060.25
2022-12-19T05:10:05.566Z,101052.56
2022-12-19T05:12:31.964Z,101059.59
2022-12-19T05:14:58.358Z,101059.53
2022-12-19T05:17:24.941Z,101065.63
2022-12-19T05:19:51.378Z,101065.53
2022-12-19T05:22:17.782Z,101072.50
2022-12-19T05:24:44.742Z,101069.81
2022-12-19T05:27:11.189Z,101062.84
2022-12-19T05:29:37.593Z,101061.72
2022-12-19T05:32:04.023Z,101066.19
2022-12-19T05:34:30.425Z,101070.38
2022-12-19T05:36:56.887Z,101067.09
2022-12-19T05:39:23.407Z,101071.41
2022-12-19T05:41:49.822Z,101067.16
2022-12-19T05:44:16.342Z,101066.31
2022-12-19T05:46:42.943Z,101075.06
2022-12-19T05:49:09.371Z,101063.69
2022-12-19T05:51:36.446Z,101061.13
2022-12-19T05:54:03.115Z,101080.84
2022-12-19T05:56:29.562Z,101079.00
2022-12-19T05:58:55.981Z,101064.94
2022-12-19T06:01:26.604Z,101082.34
2022-12-19T06:03:54.801Z,101073.63
2022-12-19T06:06:23.784Z,101071.00
2022-12-19T06:08:57.578Z,101067.41
2022-12-19T06:11:24.875Z,101062.03
2022-12-19T06:13:51.927Z,101049.91
2022-12-19T06:16:19.817Z,101059.34
2022-12-19T06:18:47.362Z,101063.63
2022-12-19T06:21:16.903Z,101048.94
2022-12-19T06:23:44.183Z,101065.38
2022-12-19T06:26:18.661Z,101064.44
2022-12-19T06:28:46.259Z,101079.00
2022-12-19T06:31:13.621Z,101067.06
2022-12-19T06:33:40.557Z,101078.09
2022-12-19T06:36:14.243Z,101073.63
2022-12-19T06:38:40.660Z,101071.84
2022-12-19T06:41:25.752Z,101069.84
2022-12-19T06:43:53.854Z,101071.03
2022-12-19T06:46:20.578Z,101062.31
2022-12-19T06:48:47.073Z,101075.22
2022-12-19T06:51:13.446Z,101066.59
2022-12-19T06:53:40.343Z,101062.25
2022-12-19T06:56:07.528Z,101037.72
2022-12-19T06:58:34.781Z,101051.78
2022-12-19T07:01:01.658Z,101069.00
2022-12-19T07:03:38.696Z,101062.00
2022-12-19T07:06:05.973Z,101061.91
2022-12-19T07:08:32.852Z,101067.16
2022-12-19T07:10:59.344Z,101073.09
2022-12-19T07:13:25.898Z,101065.09
2022-12-19T07:15:52.903Z,101056.53
2022-12-19T07:18:19.373Z,101059.63
2022-12-19T07:20:46.242Z,101071.88
2022-12-19T07:23:16.884Z,101052.94
2022-12-19T07:25:43.335Z,101070.22
2022-12-19T07:28:09.880Z,101053.03
2022-12-19T07:30:36.393Z,101063.22
2022-12-19T07:33:02.745Z,101046.72
2022-12-19T07:35:29.195Z,101055.44
2022-12-19T07:38:01.845Z,101059.47
2022-12-19T07:40:28.239Z,101037.16
2022-12-19T07:42:54.623Z,101050.88
2022-12-19T07:45:21.058Z,101040.38
2022-12-19T07:47:47.923Z,101061.91
2022-12-19T07:50:14.319Z,101062.66
2022-12-19T07:52:40.902Z,101064.47
2022-12-19T07:55:07.553Z,101074.00
2022-12-19T07:57:33.907Z,101072.94
2022-12-19T08:00:00.405Z,101060.66
2022-12-19T08:02:26.889Z,101061.50
2022-12-19T08:04:53.306Z,101070.88
2022-12-19T08:07:19.689Z,101063.69
2022-12-19T08:09:46.029Z,101065.28
2022-12-19T08:12:12.628Z,101058.47
2022-12-19T08:14:39.491Z,101055.47
2022-12-19T08:17:21.753Z,101062.47
2022-12-19T08:19:48.304Z,101074.59
2022-12-19T08:22:14.797Z,101062.44
2022-12-19T08:24:41.148Z,101052.47
2022-12-19T08:27:07.573Z,101053.38
2022-12-19T08:29:34.062Z,101020.22
2022-12-19T08:32:00.447Z,101030.78
2022-12-19T08:34:26.843Z,101040.28
2022-12-19T08:36:53.235Z,101035.06
2022-12-19T08:39:19.594Z,101027.91
2022-12-19T08:41:45.964Z,101021.00
2022-12-19T08:44:13.247Z,101022.44
2022-12-19T08:46:43.533Z,101010.00
2022-12-19T08:49:12.990Z,100992.50
2022-12-19T08:51:39.354Z,101000.28
2022-12-19T08:54:07.928Z,100995.78
2022-12-19T08:56:42.991Z,100981.09
2022-12-19T08:59:12.605Z,100991.53
2022-12-19T09:01:40.347Z,100996.41
2022-12-19T09:05:56.210Z,100986.63
2022-12-19T09:06:53.572Z,100982.09
2022-12-19T09:09:19.943Z,100981.19
2022-12-19T09:11:47.875Z,100974.19
2022-12-19T09:14:15.711Z,100970.50
2022-12-19T09:16:47.928Z,100984.13
2022-12-19T09:19:16.401Z,100982.78
2022-12-19T09:21:43.576Z,100973.44
2022-12-19T09:24:11.075Z,100973.38
2022-12-19T09:26:42.095Z,100985.16
2022-12-19T09:29:19.449Z,100974.72
2022-12-19T09:31:47.779Z,100962.75
2022-12-19T09:34:21.994Z,100959.34
2022-12-19T09:36:50.398Z,100945.53
2022-12-19T09:39:17.985Z,100954.38
2022-12-19T09:42:26.298Z,100947.13
2022-12-19T09:44:55.251Z,100958.31
2022-12-19T09:47:28.721Z,100964.19
2022-12-19T09:49:55.338Z,100954.25
2022-12-19T09:52:32.820Z,100964.81
2022-12-19T09:55:25.211Z,100957.06
2022-12-19T09:58:13.579Z,100948.22
2022-12-19T10:00:47.126Z,100948.75
2022-12-19T10:03:23.997Z,100935.53
2022-12-19T10:07:08.710Z,100945.00
2022-12-19T10:09:46.311Z,100946.59
2022-12-19T10:12:47.857Z,100939.47
2022-12-19T10:14:46.668Z,100941.88
2022-12-19T10:17:50.662Z,100925.88
2022-12-19T10:20:38.439Z,100942.50
2022-12-19T10:23:41.316Z,100939.56
2022-12-19T10:26:15.409Z,100929.03
2022-12-19T10:29:05.939Z,100894.16
2022-12-19T10:31:53.676Z,100913.50
2022-12-19T10:34:33.381Z,100919.50
2022-12-19T10:37:26.806Z,100925.66
2022-12-19T10:40:28.059Z,100923.69
2022-12-19T10:43:32.815Z,100912.09
2022-12-19T10:46:11.394Z,100907.53
2022-12-19T10:48:38.018Z,100905.56
2022-12-19T10:51:06.895Z,100917.81
2022-12-19T10:53:33.958Z,100908.56
2022-12-19T10:56:02.747Z,100910.34
2022-12-19T10:58:37.559Z,100911.84
2022-12-19T11:01:28.827Z,100904.63
2022-12-19T11:04:15.549Z,100914.94
2022-12-19T11:06:49.724Z,100912.34
2022-12-19T11:09:25.685Z,100902.63
2022-12-19T11:14:21.243Z,100896.03
2022-12-19T11:21:11.553Z,100891.72
2022-12-19T11:25:11.765Z,100892.56
2022-12-19T11:29:36.398Z,100885.38
2022-12-19T11:29:54.116Z,100866.06
2022-12-19T11:30:09.322Z,100883.59
2022-12-19T11:32:01.724Z,100866.13
2022-12-19T11:32:40.298Z,100872.13
2022-12-19T11:35:14.844Z,100853.72
2022-12-19T11:37:47.859Z,100859.84
2022-12-19T11:40:22.404Z,100854.63
2022-12-19T11:43:25.599Z,100856.41
2022-12-19T11:45:57.401Z,100856.34
2022-12-19T11:48:41.109Z,100848.38
2022-12-19T11:51:45.471Z,100853.72
2022-12-19T11:54:24.600Z,100845.06
2022-12-19T11:56:51.059Z,100843.28
2022-12-19T11:59:35.956Z,100842.50
2022-12-19T12:02:18.238Z,100841.88
2022-12-19T12:05:09.637Z,100832.34
2022-12-19T12:09:29.465Z,100829.25
2022-12-19T12:15:13.581Z,100826.00
2022-12-19T12:20:22.762Z,100815.56
2022-12-19T12:29:11.932Z,100815.34
2022-12-19T12:31:14.531Z,100812.75
2022-12-19T12:31:17.894Z,100818.81
2022-12-19T12:31:38.741Z,100812.84
2022-12-19T12:31:52.580Z,100816.13
2022-12-19T12:35:35.106Z,100801.03
2022-12-19T12:41:13.812Z,100771.56
2022-12-19T12:44:08.173Z,100788.00
2022-12-19T12:46:39.821Z,100788.78
2022-12-19T12:49:28.689Z,100784.47
2022-12-19T12:51:55.921Z,100781.56
2022-12-19T12:54:38.084Z,100770.38
2022-12-19T12:57:06.215Z,100782.72
2022-12-19T12:59:32.840Z,100772.19
2022-12-19T13:02:06.584Z,100756.63
2022-12-19T13:04:35.256Z,100764.66
2022-12-19T13:07:15.471Z,100757.75
2022-12-19T13:09:42.909Z,100767.41
2022-12-19T13:12:45.242Z,100764.03
2022-12-19T13:15:31.620Z,100761.25
2022-12-19T13:18:09.677Z,100754.88
2022-12-19T13:20:47.840Z,100753.69
2022-12-19T13:23:21.762Z,100752.06
2022-12-19T13:25:52.141Z,100751.97
2022-12-19T13:28:21.235Z,100752.19
2022-12-19T13:31:22.825Z,100761.69
2022-12-19T13:33:55.677Z,100744.91
2022-12-19T13:39:52.338Z,100748.16
2022-12-19T13:39:56.900Z,100748.09
2022-12-19T13:42:59.492Z,100745.31
2022-12-19T13:45:39.980Z,100743.94
2022-12-19T13:48:16.545Z,100755.31
2022-12-19T13:50:47.643Z,100752.69
2022-12-19T13:53:23.385Z,100741.75
2022-12-19T13:55:53.327Z,100734.97
2022-12-19T13:58:28.937Z,100737.72
2022-12-19T14:01:01.095Z,100728.44
2022-12-19T14:03:38.193Z,100734.38
2022-12-19T14:06:19.569Z,100731.63
2022-12-19T14:09:41.548Z,100727.72
2022-12-19T14:12:21.637Z,100733.91
2022-12-19T14:14:47.876Z,100737.81
2022-12-19T14:17:20.107Z,100737.88
2022-12-19T14:19:50.084Z,100735.22
2022-12-19T14:22:25.362Z,100722.09
2022-12-19T14:26:10.254Z,100743.03
2022-12-19T14:28:18.039Z,100733.50
2022-12-19T14:30:49.916Z,100732.94
2022-12-19T14:33:45.560Z,100735.22
2022-12-19T14:36:18.638Z,100733.63
2022-12-19T14:39:23.113Z,100730.09
2022-12-19T14:42:04.328Z,100728.44
2022-12-19T14:53:08.570Z,100727.72
2022-12-19T14:54:01.917Z,100726.59
2022-12-19T14:54:05.591Z,100731.81
2022-12-19T14:54:34.885Z,100733.44
2022-12-19T14:59:02.495Z,100716.81
2022-12-19T15:01:32.181Z,100725.63
2022-12-19T15:04:53.435Z,100720.31
2022-12-19T15:07:11.844Z,100718.41
2022-12-19T15:11:03.349Z,100712.50
2022-12-19T15:14:48.461Z,100731.59
2022-12-19T15:15:56.667Z,100714.22
2022-12-19T15:18:27.357Z,100710.59
2022-12-19T15:20:56.518Z,100722.78
2022-12-19T15:23:23.912Z,100724.34
2022-12-19T15:26:08.475Z,100730.56
2022-12-19T15:28:43.081Z,100746.91
2022-12-19T15:31:24.300Z,100731.94
2022-12-19T15:34:23.745Z,100728.44
2022-12-19T15:36:37.288Z,100737.16
2022-12-19T15:39:03.889Z,100744.66
2022-12-19T15:41:31.192Z,100744.78
2022-12-19T15:44:06.108Z,100731.91
2022-12-19T15:46:33.464Z,100742.19
2022-12-19T15:48:59.919Z,100725.63
2022-12-19T15:51:26.390Z,100717.00
2022-12-19T15:53:52.773Z,100711.50
2022-12-19T15:56:33.720Z,100711.44
2022-12-19T15:59:02.037Z,100709.69
2022-12-19T16:01:29.382Z,100701.72
2022-12-19T16:03:58.898Z,100694.03
2022-12-19T16:06:25.554Z,100695.84
2022-12-19T16:08:52.117Z,100693.25
2022-12-19T16:11:21.278Z,100702.00
2022-12-19T16:13:52.546Z,100695.84
2022-12-19T16:16:18.952Z,100699.88
2022-12-19T16:18:47.315Z,100697.41
2022-12-19T16:21:31.488Z,100685.16
2022-12-19T16:24:00.673Z,100702.63
2022-12-19T16:26:36.863Z,100685.00
2022-12-19T16:29:03.645Z,100693.44
2022-12-19T16:31:30.328Z,100700.66
2022-12-19T16:33:56.722Z,100693.44
2022-12-19T16:36:23.094Z,100682.84
2022-12-19T16:38:49.634Z,100689.63
2022-12-19T16:41:22.082Z,100679.19
2022-12-19T16:43:48.879Z,100689.63
2022-12-19T16:46:21.800Z,100697.63
2022-12-19T16:48:48.464Z,100700.97
2022-12-19T16:51:21.333Z,100700.22
2022-12-19T16:53:48.452Z,100708.81
2022-12-19T16:56:30.098Z,100707.28
2022-12-19T16:58:59.889Z,100698.22
2022-12-19T17:01:27.300Z,100702.69
2022-12-19T17:03:54.408Z,100699.16
2022-12-19T17:06:22.055Z,100691.03
2022-12-19T17:08:49.055Z,100700.06
2022-12-19T17:11:23.066Z,100685.25
2022-12-19T17:13:52.561Z,100694.84
2022-12-19T17:16:19.020Z,100687.94
2022-12-19T17:18:46.380Z,100693.00
2022-12-19T17:21:18.162Z,100686.66
2022-12-19T17:23:46.224Z,100694.56
2022-12-19T17:26:17.646Z,100685.66
2022-12-19T17:28:47.831Z,100690.88
2022-12-19T17:31:29.444Z,100690.03
2022-12-19T17:33:57.694Z,100687.47
2022-12-19T17:36:32.664Z,100680.28
2022-12-19T17:39:03.745Z,100676.00
2022-12-19T17:41:30.656Z,100682.91
2022-12-19T17:43:57.233Z,100690.88
2022-12-19T17:46:24.309Z,100688.75
2022-12-19T17:48:52.803Z,100690.66
2022-12-19T17:51:21.445Z,100694.13
2022-12-19T17:53:49.748Z,100687.38
2022-12-19T17:56:19.689Z,100689.03
2022-12-19T17:58:47.219Z,100685.50
2022-12-19T18:01:25.028Z,100688.81
2022-12-19T18:03:53.798Z,100690.56
2022-12-19T18:06:20.728Z,100677.81
2022-12-19T18:08:47.785Z,100679.38
2022-12-19T18:11:23.263Z,100679.16
2022-12-19T18:13:50.080Z,100685.97
2022-12-19T18:16:19.655Z,100683.38
2022-12-19T18:18:46.758Z,100686.13
2022-12-19T18:21:15.668Z,100695.63
2022-12-19T18:23:42.387Z,100684.38
2022-12-19T18:26:10.812Z,100691.25
2022-12-19T18:28:37.858Z,100669.47
2022-12-19T18:31:13.717Z,100690.13
2022-12-19T18:33:43.036Z,100679.84
2022-12-19T18:36:17.306Z,100671.41
2022-12-19T18:38:43.708Z,100692.13
2022-12-19T18:41:12.076Z,100680.69
2022-12-19T18:43:38.456Z,100698.19
2022-12-19T18:46:05.756Z,100674.47
2022-12-19T18:48:36.872Z,100681.53
2022-12-19T18:51:04.713Z,100676.16
2022-12-19T18:53:35.336Z,100673.31
2022-12-19T18:56:04.484Z,100668.25
2022-12-19T18:58:30.976Z,100670.63
2022-12-19T19:00:59.579Z,100658.50
2022-12-19T19:03:32.349Z,100660.50
2022-12-19T19:05:58.950Z,100663.13
2022-12-19T19:08:29.145Z,100657.97
2022-12-19T19:10:56.446Z,100647.59
2022-12-19T19:13:25.576Z,100653.72
2022-12-19T19:16:00.786Z,100649.59
2022-12-19T19:18:35.044Z,100636.47
2022-12-19T19:21:01.938Z,100628.41
2022-12-19T19:23:42.512Z,100637.16
2022-12-19T19:26:08.899Z,100643.13
2022-12-19T19:28:37.288Z,100649.22
2022-12-19T19:31:08.537Z,100649.06
2022-12-19T19:33:39.604Z,100645.44
2022-12-19T19:36:15.212Z,100663.19
2022-12-19T19:38:45.301Z,100664.94
2022-12-19T19:41:12.522Z,100671.94
2022-12-19T19:43:38.989Z,100669.25
2022-12-19T19:46:05.731Z,100662.88
2022-12-19T19:48:32.286Z,100672.47
2022-12-19T19:50:59.053Z,100662.19
2022-12-19T19:53:25.758Z,100642.16
2022-12-19T19:55:56.680Z,100629.19
2022-12-19T19:58:23.545Z,100627.16
2022-12-19T20:00:50.290Z,100629.41
2022-12-19T20:03:22.274Z,100630.56
2022-12-19T20:05:50.063Z,100625.28
2022-12-19T20:08:16.625Z,100620.63
2022-12-19T20:10:43.030Z,100625.13
2022-12-19T20:13:11.096Z,100627.47
2022-12-19T20:15:37.721Z,100635.47
2022-12-19T20:18:04.199Z,100631.19
2022-12-19T20:20:33.188Z,100631.09
2022-12-19T20:22:59.611Z,100623.34
2022-12-19T20:25:25.945Z,100612.91
2022-12-19T20:27:52.326Z,100610.28
2022-12-19T20:30:18.821Z,100617.19
2022-12-19T20:32:45.258Z,100618.13
2022-12-19T20:35:14.881Z,100613.84
2022-12-19T20:37:41.972Z,100592.78
2022-12-19T20:40:09.007Z,100595.41
2022-12-19T20:42:35.735Z,100574.19
2022-12-19T20:45:02.444Z,100596.16
2022-12-19T20:47:28.926Z,100575.19
2022-12-19T20:49:55.352Z,100586.97
2022-12-19T20:52:21.739Z,100581.88
2022-12-19T20:54:48.202Z,100579.34
2022-12-19T20:57:14.625Z,100578.50
2022-12-19T20:59:41.074Z,100571.75
2022-12-19T21:02:07.859Z,100585.72
2022-12-19T21:04:34.744Z,100589.25
2022-12-19T21:07:01.259Z,100578.81
2022-12-19T21:09:27.768Z,100573.75
2022-12-19T21:11:54.281Z,100578.97
2022-12-19T21:14:20.655Z,100580.66
2022-12-19T21:16:47.139Z,100563.94
2022-12-19T21:19:13.648Z,100577.31
2022-12-19T21:21:40.043Z,100577.44
2022-12-19T21:24:06.578Z,100565.00
2022-12-19T21:26:33.933Z,100569.47
2022-12-19T21:29:00.487Z,100582.53
2022-12-19T21:31:29.839Z,100602.25
2022-12-19T21:34:01.024Z,100604.75
2022-12-19T21:36:29.157Z,100591.66
2022-12-19T21:38:58.916Z,100569.91
2022-12-19T21:41:25.778Z,100571.44
2022-12-19T21:43:55.143Z,100573.28
2022-12-19T21:46:24.239Z,100575.72
2022-12-19T21:48:53.297Z,100566.53
2022-12-19T21:51:21.572Z,100567.44
2022-12-19T21:53:48.824Z,100547.66
2022-12-19T21:56:27.221Z,100563.00
2022-12-19T21:58:56.191Z,100566.84
2022-12-19T22:01:23.473Z,100576.44
2022-12-19T22:03:51.033Z,100580.81
2022-12-19T22:06:27.381Z,100586.03
2022-12-19T22:08:54.753Z,100578.13
2022-12-19T22:11:22.257Z,100573.91
2022-12-19T22:13:49.429Z,100571.16
2022-12-19T22:16:16.830Z,100566.53
2022-12-19T22:18:43.731Z,100568.38
2022-12-19T22:21:14.722Z,100564.16
2022-12-19T22:23:41.448Z,100571.09
2022-12-19T22:26:12.287Z,100582.53
2022-12-19T22:28:42.356Z,100578.28
2022-12-19T22:31:20.341Z,100589.41
2022-12-19T22:33:48.023Z,100582.84
2022-12-19T22:36:15.908Z,100594.09
2022-12-19T22:38:45.813Z,100574.06
2022-12-19T22:41:13.001Z,100574.06
2022-12-19T22:43:39.953Z,100576.31
2022-12-19T22:46:10.406Z,100594.78
2022-12-19T22:48:37.412Z,100586.03
2022-12-19T22:51:04.074Z,100582.69
2022-12-19T22:53:31.955Z,100584.56
2022-12-19T22:56:06.122Z,100606.91
2022-12-19T22:58:35.325Z,100615.97
2022-12-19T23:01:12.396Z,100598.34
2022-12-19T23:03:39.004Z,100604.44
2022-12-19T23:06:05.576Z,100605.53
2022-12-19T23:08:32.071Z,100616.13
2022-12-19T23:10:58.520Z,100602.53
2022-12-19T23:13:25.990Z,100606.38
2022-12-19T23:15:52.418Z,100595.94
2022-12-19T23:18:18.820Z,100595.25
2022-12-19T23:20:45.260Z,100595.41
2022-12-19T23:23:11.638Z,100592.19
2022-12-19T23:25:42.491Z,100600.63
2022-12-19T23:28:09.771Z,100598.66
2022-12-19T23:30:36.979Z,100590.19
2022-12-19T23:33:04.172Z,100599.94
2022-12-19T23:35:32.647Z,100609.97
2022-12-19T23:37:59.032Z,100595.88
2022-12-19T23:40:25.410Z,100599.53
2022-12-19T23:42:51.764Z,100592.47
2022-12-19T23:45:18.350Z,100593.47
2022-12-19T23:47:47.770Z,100582.19
2022-12-19T23:50:14.372Z,100584.72
2022-12-19T23:52:41.769Z,100554.28
2022-12-19T23:55:08.827Z,100543.84
2022-12-19T23:57:35.198Z,100554.19
